Torun, Poland

8:06 PM CEST on June 02, 2015 (GMT +0200)
Lubicz Gorny | | Change Station
CLOSE
Current Station
Personal Weather Station
Location: Lubicz Górny, KUJAWSKO-POMORSKIE
Elevation: 233 ft
Nearby Weather Stations

Elev 233 ft 53.02 °N, 18.77 °E | Updated 0 second ago

Clear
Clear
74.7 °F
Feels Like 77 °F
N
0.9
Wind Variable Wind from South
Gusts 2.5 mph

Today
High -- | Low -- °F
--% Chance of Precip.
Yesterday
High -- | Low -- °F
Precip. -- in
4:25 AM 9:02 PM
Full, 100% visible
Pressure 29.92 in
Visibility -9999.0 miles
Clouds
Heat Index 77 °F
Dew Point 47 °F
Humidity 37%
Rainfall 0.11 in
Snow Depth Not available.
UV 0.0 out of 12
Pollen Not available.
Air Quality Not available.
Flu Activity Not available.
METAR EPBY 021800Z 21008KT 180V240 CAVOK 24/09 Q1013

More Conditions Fewer Conditions

Pressure 29.92 in
Visibility -9999.0 miles
Clouds
Heat Index 77 °F
Dew Point 47 °F
Humidity 37%
Rainfall 0.11 in
Snow Depth Not available.
UV 0.0 out of 12
Pollen Not available.
Air Quality Not available.
Flu Activity Not available.
METAR EPBY 021800Z 21008KT 180V240 CAVOK 24/09 Q1013

More Conditions Fewer Conditions

10-Day Weather Forecast

×

Almanac

Astronomy

Jun. 02, 2015 Rise Set
Actual Time
Civil Twilight
Nautical Twilight
Astronomical Twilight
Moon
Length of Visible Light
Length of Day
Tomorrow will be .
, % of the Moon is Illuminated

Today's Extremes

Country Highs Country Lows

Community

WunderPhotos

Upload Photos

1,825,991 photos uploaded!

WunderBlogs® & News

Nearby

Air Quality

  Air Quality AQ Index Pollutant
Not available.

Snow Depth

Station Depth Elevation

Earthquake Activity

City Distance Mag. Time & Date
Minimum magnitude displayed is 2.5.

Coastal Water Temperatures

Place Temperature

Stations

Nearby Weather Stations

Station Location Temp. Windchill Dew Point Humidity Wind Precip. Elev Updated Type